sensor_id;sensor_type;location;lat;lon;timestamp;temperature;humidity
23156;DHT22;11746;50.876;4.246;2022-10-17T00:00:29;16.70;99.90
23156;DHT22;11746;50.876;4.246;2022-10-17T00:02:55;16.70;99.90
23156;DHT22;11746;50.876;4.246;2022-10-17T00:05:22;16.80;99.90
23156;DHT22;11746;50.876;4.246;2022-10-17T00:07:48;16.80;99.90
23156;DHT22;11746;50.876;4.246;2022-10-17T00:10:14;16.90;99.90
23156;DHT22;11746;50.876;4.246;2022-10-17T00:12:40;16.90;99.90
23156;DHT22;11746;50.876;4.246;2022-10-17T00:15:06;17.00;99.90
23156;DHT22;11746;50.876;4.246;2022-10-17T00:17:33;16.90;99.90
23156;DHT22;11746;50.876;4.246;2022-10-17T00:20:00;17.10;99.90
23156;DHT22;11746;50.876;4.246;2022-10-17T00:22:27;17.00;99.90
23156;DHT22;11746;50.876;4.246;2022-10-17T00:24:53;16.90;99.90
23156;DHT22;11746;50.876;4.246;2022-10-17T00:27:18;17.00;99.90
23156;DHT22;11746;50.876;4.246;2022-10-17T00:29:51;17.00;99.90
23156;DHT22;11746;50.876;4.246;2022-10-17T00:32:18;17.00;99.90
23156;DHT22;11746;50.876;4.246;2022-10-17T00:34:44;17.00;99.90
23156;DHT22;11746;50.876;4.246;2022-10-17T00:37:10;17.00;99.90
23156;DHT22;11746;50.876;4.246;2022-10-17T00:39:36;17.00;99.90
23156;DHT22;11746;50.876;4.246;2022-10-17T00:42:03;17.00;99.90
23156;DHT22;11746;50.876;4.246;2022-10-17T00:47:02;17.00;99.90
23156;DHT22;11746;50.876;4.246;2022-10-17T00:49:30;17.10;99.90
23156;DHT22;11746;50.876;4.246;2022-10-17T00:52:03;17.10;99.90
23156;DHT22;11746;50.876;4.246;2022-10-17T00:54:36;17.00;99.90
23156;DHT22;11746;50.876;4.246;2022-10-17T00:57:03;17.00;99.90
23156;DHT22;11746;50.876;4.246;2022-10-17T00:59:32;17.00;99.90
23156;DHT22;11746;50.876;4.246;2022-10-17T01:02:06;17.10;99.90
23156;DHT22;11746;50.876;4.246;2022-10-17T01:04:32;17.00;99.90
23156;DHT22;11746;50.876;4.246;2022-10-17T01:06:58;17.00;99.90
23156;DHT22;11746;50.876;4.246;2022-10-17T01:09:25;17.00;99.90
23156;DHT22;11746;50.876;4.246;2022-10-17T01:22:49;17.20;99.90
23156;DHT22;11746;50.876;4.246;2022-10-17T01:35:54;17.20;99.90
23156;DHT22;11746;50.876;4.246;2022-10-17T01:38:41;17.20;99.90
23156;DHT22;11746;50.876;4.246;2022-10-17T01:41:34;17.30;99.90
23156;DHT22;11746;50.876;4.246;2022-10-17T01:44:33;17.30;99.90
23156;DHT22;11746;50.876;4.246;2022-10-17T01:47:12;17.30;99.90
23156;DHT22;11746;50.876;4.246;2022-10-17T01:49:40;17.30;99.90
23156;DHT22;11746;50.876;4.246;2022-10-17T01:52:15;17.30;99.90
23156;DHT22;11746;50.876;4.246;2022-10-17T01:54:50;17.30;99.90
23156;DHT22;11746;50.876;4.246;2022-10-17T01:59:56;17.40;99.90
23156;DHT22;11746;50.876;4.246;2022-10-17T02:02:25;17.30;99.90
23156;DHT22;11746;50.876;4.246;2022-10-17T02:04:52;17.30;99.90
23156;DHT22;11746;50.876;4.246;2022-10-17T02:07:18;17.30;99.90
23156;DHT22;11746;50.876;4.246;2022-10-17T02:09:44;17.40;99.90
23156;DHT22;11746;50.876;4.246;2022-10-17T02:20:55;17.40;99.90
23156;DHT22;11746;50.876;4.246;2022-10-17T02:24:05;17.40;99.90
23156;DHT22;11746;50.876;4.246;2022-10-17T02:26:25;17.40;99.90
23156;DHT22;11746;50.876;4.246;2022-10-17T02:31:30;17.50;99.90
23156;DHT22;11746;50.876;4.246;2022-10-17T02:34:02;17.50;99.90
23156;DHT22;11746;50.876;4.246;2022-10-17T02:36:36;17.60;99.90
23156;DHT22;11746;50.876;4.246;2022-10-17T02:39:04;17.70;99.90
23156;DHT22;11746;50.876;4.246;2022-10-17T02:41:31;17.80;99.90
23156;DHT22;11746;50.876;4.246;2022-10-17T02:43:59;17.80;99.90
23156;DHT22;11746;50.876;4.246;2022-10-17T02:46:27;17.70;99.90
23156;DHT22;11746;50.876;4.246;2022-10-17T02:49:06;17.80;99.90
23156;DHT22;11746;50.876;4.246;2022-10-17T02:51:44;17.80;99.90
23156;DHT22;11746;50.876;4.246;2022-10-17T02:54:20;17.80;99.90
23156;DHT22;11746;50.876;4.246;2022-10-17T02:57:02;17.90;99.90
23156;DHT22;11746;50.876;4.246;2022-10-17T02:59:32;17.90;99.90
23156;DHT22;11746;50.876;4.246;2022-10-17T03:02:03;17.90;99.90
23156;DHT22;11746;50.876;4.246;2022-10-17T03:04:29;17.90;99.90
23156;DHT22;11746;50.876;4.246;2022-10-17T03:06:55;17.80;99.90
23156;DHT22;11746;50.876;4.246;2022-10-17T03:09:21;17.80;99.90
23156;DHT22;11746;50.876;4.246;2022-10-17T03:11:47;17.80;99.90
23156;DHT22;11746;50.876;4.246;2022-10-17T03:14:13;17.90;99.90
23156;DHT22;11746;50.876;4.246;2022-10-17T03:16:39;17.90;99.90
23156;DHT22;11746;50.876;4.246;2022-10-17T03:19:05;17.90;99.90
23156;DHT22;11746;50.876;4.246;2022-10-17T03:21:31;17.90;99.90
23156;DHT22;11746;50.876;4.246;2022-10-17T03:23:56;18.00;99.90
23156;DHT22;11746;50.876;4.246;2022-10-17T03:26:23;18.00;99.90
23156;DHT22;11746;50.876;4.246;2022-10-17T03:28:49;18.00;99.90
23156;DHT22;11746;50.876;4.246;2022-10-17T03:31:17;18.10;99.90
23156;DHT22;11746;50.876;4.246;2022-10-17T03:33:43;18.20;99.90
23156;DHT22;11746;50.876;4.246;2022-10-17T03:36:11;18.10;99.90
23156;DHT22;11746;50.876;4.246;2022-10-17T03:38:38;18.10;99.90
23156;DHT22;11746;50.876;4.246;2022-10-17T03:41:04;18.10;99.90
23156;DHT22;11746;50.876;4.246;2022-10-17T03:43:31;18.10;99.90
23156;DHT22;11746;50.876;4.246;2022-10-17T03:45:57;18.20;99.90
23156;DHT22;11746;50.876;4.246;2022-10-17T03:48:24;18.20;99.90
23156;DHT22;11746;50.876;4.246;2022-10-17T03:50:50;18.20;99.90
23156;DHT22;11746;50.876;4.246;2022-10-17T03:53:16;18.20;99.90
23156;DHT22;11746;50.876;4.246;2022-10-17T03:55:42;18.10;99.90
23156;DHT22;11746;50.876;4.246;2022-10-17T03:58:07;18.10;99.90
23156;DHT22;11746;50.876;4.246;2022-10-17T04:00:36;18.10;99.90
23156;DHT22;11746;50.876;4.246;2022-10-17T04:03:03;18.10;99.90
23156;DHT22;11746;50.876;4.246;2022-10-17T04:05:29;18.10;99.90
23156;DHT22;11746;50.876;4.246;2022-10-17T04:07:55;18.10;99.90
23156;DHT22;11746;50.876;4.246;2022-10-17T04:10:21;18.00;99.90
23156;DHT22;11746;50.876;4.246;2022-10-17T04:12:47;18.00;99.90
23156;DHT22;11746;50.876;4.246;2022-10-17T04:15:12;18.10;99.90
23156;DHT22;11746;50.876;4.246;2022-10-17T04:17:39;18.10;99.90
23156;DHT22;11746;50.876;4.246;2022-10-17T04:20:05;18.00;99.90
23156;DHT22;11746;50.876;4.246;2022-10-17T04:22:32;18.00;99.90
23156;DHT22;11746;50.876;4.246;2022-10-17T04:24:58;18.00;99.90
23156;DHT22;11746;50.876;4.246;2022-10-17T04:27:24;18.00;99.90
23156;DHT22;11746;50.876;4.246;2022-10-17T04:29:50;18.00;99.90
23156;DHT22;11746;50.876;4.246;2022-10-17T04:32:16;18.00;99.90
23156;DHT22;11746;50.876;4.246;2022-10-17T04:34:43;17.90;99.90
23156;DHT22;11746;50.876;4.246;2022-10-17T04:37:09;18.00;99.90
23156;DHT22;11746;50.876;4.246;2022-10-17T04:39:34;17.90;99.90
23156;DHT22;11746;50.876;4.246;2022-10-17T04:42:01;18.00;99.90
23156;DHT22;11746;50.876;4.246;2022-10-17T04:44:27;18.00;99.90
23156;DHT22;11746;50.876;4.246;2022-10-17T04:46:55;17.90;99.90
23156;DHT22;11746;50.876;4.246;2022-10-17T04:49:21;17.80;99.90
23156;DHT22;11746;50.876;4.246;2022-10-17T04:51:47;17.80;99.90
23156;DHT22;11746;50.876;4.246;2022-10-17T04:54:14;17.90;99.90
23156;DHT22;11746;50.876;4.246;2022-10-17T04:56:40;17.90;99.90
23156;DHT22;11746;50.876;4.246;2022-10-17T04:59:06;17.90;99.90
23156;DHT22;11746;50.876;4.246;2022-10-17T05:01:33;17.80;99.90
23156;DHT22;11746;50.876;4.246;2022-10-17T05:03:58;17.90;99.90
23156;DHT22;11746;50.876;4.246;2022-10-17T05:06:25;17.90;99.90
23156;DHT22;11746;50.876;4.246;2022-10-17T05:08:56;17.80;99.90
23156;DHT22;11746;50.876;4.246;2022-10-17T05:11:24;17.80;99.90
23156;DHT22;11746;50.876;4.246;2022-10-17T05:14:01;17.90;99.90
23156;DHT22;11746;50.876;4.246;2022-10-17T05:16:28;17.90;99.90
23156;DHT22;11746;50.876;4.246;2022-10-17T05:18:57;17.80;99.90
23156;DHT22;11746;50.876;4.246;2022-10-17T05:21:25;17.80;99.90
23156;DHT22;11746;50.876;4.246;2022-10-17T05:23:52;17.90;99.90
23156;DHT22;11746;50.876;4.246;2022-10-17T05:26:19;17.80;99.90
23156;DHT22;11746;50.876;4.246;2022-10-17T05:28:46;17.90;99.90
23156;DHT22;11746;50.876;4.246;2022-10-17T05:31:13;18.00;99.90
23156;DHT22;11746;50.876;4.246;2022-10-17T05:33:39;18.00;99.90
23156;DHT22;11746;50.876;4.246;2022-10-17T05:36:06;18.10;99.90
23156;DHT22;11746;50.876;4.246;2022-10-17T05:38:34;18.10;99.90
23156;DHT22;11746;50.876;4.246;2022-10-17T05:41:02;18.10;99.90
23156;DHT22;11746;50.876;4.246;2022-10-17T05:43:30;17.90;99.90
23156;DHT22;11746;50.876;4.246;2022-10-17T05:45:57;18.00;99.90
23156;DHT22;11746;50.876;4.246;2022-10-17T05:48:23;18.00;99.90
23156;DHT22;11746;50.876;4.246;2022-10-17T05:50:57;18.00;99.90
23156;DHT22;11746;50.876;4.246;2022-10-17T05:53:24;18.00;99.90
23156;DHT22;11746;50.876;4.246;2022-10-17T05:56:01;18.10;99.90
23156;DHT22;11746;50.876;4.246;2022-10-17T05:58:29;18.20;99.90
23156;DHT22;11746;50.876;4.246;2022-10-17T06:01:00;18.10;99.90
23156;DHT22;11746;50.876;4.246;2022-10-17T06:03:27;18.00;99.90
23156;DHT22;11746;50.876;4.246;2022-10-17T06:05:53;18.00;99.90
23156;DHT22;11746;50.876;4.246;2022-10-17T06:08:21;18.00;99.90
23156;DHT22;11746;50.876;4.246;2022-10-17T06:10:48;18.00;99.90
23156;DHT22;11746;50.876;4.246;2022-10-17T06:13:15;17.90;99.90
23156;DHT22;11746;50.876;4.246;2022-10-17T06:15:41;17.90;99.90
23156;DHT22;11746;50.876;4.246;2022-10-17T06:18:07;17.90;99.90
23156;DHT22;11746;50.876;4.246;2022-10-17T06:20:33;17.90;99.90
23156;DHT22;11746;50.876;4.246;2022-10-17T06:22:59;17.90;99.90
23156;DHT22;11746;50.876;4.246;2022-10-17T06:25:25;17.90;99.90
23156;DHT22;11746;50.876;4.246;2022-10-17T06:27:51;18.00;99.90
23156;DHT22;11746;50.876;4.246;2022-10-17T06:30:17;18.00;99.90
23156;DHT22;11746;50.876;4.246;2022-10-17T06:32:43;18.00;99.90
23156;DHT22;11746;50.876;4.246;2022-10-17T06:35:09;18.00;99.90
23156;DHT22;11746;50.876;4.246;2022-10-17T06:37:35;18.00;99.90
23156;DHT22;11746;50.876;4.246;2022-10-17T06:40:02;18.00;99.90
23156;DHT22;11746;50.876;4.246;2022-10-17T06:42:27;17.90;99.90
23156;DHT22;11746;50.876;4.246;2022-10-17T06:44:54;17.90;99.90
23156;DHT22;11746;50.876;4.246;2022-10-17T06:47:19;17.90;99.90
23156;DHT22;11746;50.876;4.246;2022-10-17T06:49:45;18.00;99.90
23156;DHT22;11746;50.876;4.246;2022-10-17T06:52:12;17.90;99.90
23156;DHT22;11746;50.876;4.246;2022-10-17T06:54:39;17.90;99.90
23156;DHT22;11746;50.876;4.246;2022-10-17T06:57:05;17.80;99.90
23156;DHT22;11746;50.876;4.246;2022-10-17T06:59:31;17.80;99.90
23156;DHT22;11746;50.876;4.246;2022-10-17T07:01:57;17.80;99.90
23156;DHT22;11746;50.876;4.246;2022-10-17T07:04:25;17.90;99.90
23156;DHT22;11746;50.876;4.246;2022-10-17T07:06:52;17.80;99.90
23156;DHT22;11746;50.876;4.246;2022-10-17T07:09:18;17.80;99.90
23156;DHT22;11746;50.876;4.246;2022-10-17T07:11:44;17.80;99.90
23156;DHT22;11746;50.876;4.246;2022-10-17T07:14:10;17.60;99.90
23156;DHT22;11746;50.876;4.246;2022-10-17T07:16:36;17.50;99.90
23156;DHT22;11746;50.876;4.246;2022-10-17T07:19:02;17.50;99.90
23156;DHT22;11746;50.876;4.246;2022-10-17T07:21:29;17.60;99.90
23156;DHT22;11746;50.876;4.246;2022-10-17T07:23:55;17.50;99.90
23156;DHT22;11746;50.876;4.246;2022-10-17T07:26:21;17.40;99.90
23156;DHT22;11746;50.876;4.246;2022-10-17T07:28:51;17.40;99.90
23156;DHT22;11746;50.876;4.246;2022-10-17T07:31:18;17.40;99.90
23156;DHT22;11746;50.876;4.246;2022-10-17T07:33:45;17.40;99.90
23156;DHT22;11746;50.876;4.246;2022-10-17T07:36:12;17.30;99.90
23156;DHT22;11746;50.876;4.246;2022-10-17T07:38:39;17.30;99.90
23156;DHT22;11746;50.876;4.246;2022-10-17T07:41:07;17.30;99.90
23156;DHT22;11746;50.876;4.246;2022-10-17T07:43:34;17.10;99.90
23156;DHT22;11746;50.876;4.246;2022-10-17T07:46:02;17.10;99.90
23156;DHT22;11746;50.876;4.246;2022-10-17T07:48:29;17.10;99.90
23156;DHT22;11746;50.876;4.246;2022-10-17T07:50:55;17.10;99.90
23156;DHT22;11746;50.876;4.246;2022-10-17T07:53:22;17.00;99.90
23156;DHT22;11746;50.876;4.246;2022-10-17T07:55:48;17.00;99.90
23156;DHT22;11746;50.876;4.246;2022-10-17T07:58:15;16.90;99.90
23156;DHT22;11746;50.876;4.246;2022-10-17T08:00:42;17.10;99.90
23156;DHT22;11746;50.876;4.246;2022-10-17T08:03:09;17.20;99.90
23156;DHT22;11746;50.876;4.246;2022-10-17T08:05:36;17.30;99.90
23156;DHT22;11746;50.876;4.246;2022-10-17T08:08:02;17.30;99.90
23156;DHT22;11746;50.876;4.246;2022-10-17T08:10:28;17.20;99.90
23156;DHT22;11746;50.876;4.246;2022-10-17T08:12:55;17.20;99.90
23156;DHT22;11746;50.876;4.246;2022-10-17T08:15:22;17.20;99.90
23156;DHT22;11746;50.876;4.246;2022-10-17T08:17:51;17.10;99.90
23156;DHT22;11746;50.876;4.246;2022-10-17T08:20:17;17.20;99.90
23156;DHT22;11746;50.876;4.246;2022-10-17T08:22:51;17.20;99.90
23156;DHT22;11746;50.876;4.246;2022-10-17T08:25:17;17.30;99.90
23156;DHT22;11746;50.876;4.246;2022-10-17T08:27:42;17.30;99.90
23156;DHT22;11746;50.876;4.246;2022-10-17T08:30:09;17.30;99.90
23156;DHT22;11746;50.876;4.246;2022-10-17T08:32:35;17.20;99.90
23156;DHT22;11746;50.876;4.246;2022-10-17T08:35:00;17.30;99.90
23156;DHT22;11746;50.876;4.246;2022-10-17T08:37:26;17.40;99.90
23156;DHT22;11746;50.876;4.246;2022-10-17T08:39:54;17.40;99.90
23156;DHT22;11746;50.876;4.246;2022-10-17T08:42:42;17.40;99.90
23156;DHT22;11746;50.876;4.246;2022-10-17T08:47:52;17.50;99.90
23156;DHT22;11746;50.876;4.246;2022-10-17T08:51:01;17.40;99.90
23156;DHT22;11746;50.876;4.246;2022-10-17T08:54:25;17.60;99.90
23156;DHT22;11746;50.876;4.246;2022-10-17T08:56:41;17.50;99.90
23156;DHT22;11746;50.876;4.246;2022-10-17T08:59:13;17.60;99.90
23156;DHT22;11746;50.876;4.246;2022-10-17T09:09:56;17.70;99.90
23156;DHT22;11746;50.876;4.246;2022-10-17T09:12:38;17.70;99.90
23156;DHT22;11746;50.876;4.246;2022-10-17T09:18:29;17.70;99.90
23156;DHT22;11746;50.876;4.246;2022-10-17T09:23:56;17.80;99.90
23156;DHT22;11746;50.876;4.246;2022-10-17T09:26:25;17.70;99.90
23156;DHT22;11746;50.876;4.246;2022-10-17T09:28:53;17.80;99.90
23156;DHT22;11746;50.876;4.246;2022-10-17T09:31:25;17.90;99.90
23156;DHT22;11746;50.876;4.246;2022-10-17T09:33:56;18.00;99.90
23156;DHT22;11746;50.876;4.246;2022-10-17T09:36:29;18.00;99.90
23156;DHT22;11746;50.876;4.246;2022-10-17T09:39:15;17.80;99.90
23156;DHT22;11746;50.876;4.246;2022-10-17T09:41:54;17.70;99.90
23156;DHT22;11746;50.876;4.246;2022-10-17T09:44:33;17.80;99.90
23156;DHT22;11746;50.876;4.246;2022-10-17T09:47:21;17.70;99.90
23156;DHT22;11746;50.876;4.246;2022-10-17T09:49:48;17.80;99.90
23156;DHT22;11746;50.876;4.246;2022-10-17T09:52:17;17.80;99.90
23156;DHT22;11746;50.876;4.246;2022-10-17T09:57:16;17.80;99.90
23156;DHT22;11746;50.876;4.246;2022-10-17T10:02:22;17.90;99.90
23156;DHT22;11746;50.876;4.246;2022-10-17T10:07:20;17.80;99.90
23156;DHT22;11746;50.876;4.246;2022-10-17T10:09:47;17.80;99.90
23156;DHT22;11746;50.876;4.246;2022-10-17T10:12:36;17.80;99.90
23156;DHT22;11746;50.876;4.246;2022-10-17T10:15:30;17.80;99.90
23156;DHT22;11746;50.876;4.246;2022-10-17T10:17:56;17.80;99.90
23156;DHT22;11746;50.876;4.246;2022-10-17T10:20:33;17.80;99.90
23156;DHT22;11746;50.876;4.246;2022-10-17T10:23:14;17.70;99.90
23156;DHT22;11746;50.876;4.246;2022-10-17T10:25:51;17.70;99.90
23156;DHT22;11746;50.876;4.246;2022-10-17T10:28:18;17.70;99.90
23156;DHT22;11746;50.876;4.246;2022-10-17T10:30:50;17.80;99.90
23156;DHT22;11746;50.876;4.246;2022-10-17T10:33:19;17.70;99.90
23156;DHT22;11746;50.876;4.246;2022-10-17T10:35:57;17.70;99.90
23156;DHT22;11746;50.876;4.246;2022-10-17T10:38:26;17.80;99.90
23156;DHT22;11746;50.876;4.246;2022-10-17T10:40:55;17.90;99.90
23156;DHT22;11746;50.876;4.246;2022-10-17T10:43:41;17.90;99.90
23156;DHT22;11746;50.876;4.246;2022-10-17T10:46:24;18.00;99.90
23156;DHT22;11746;50.876;4.246;2022-10-17T10:48:57;18.00;99.90
23156;DHT22;11746;50.876;4.246;2022-10-17T10:51:45;17.90;99.90
23156;DHT22;11746;50.876;4.246;2022-10-17T10:54:29;17.80;99.90
23156;DHT22;11746;50.876;4.246;2022-10-17T10:56:59;17.70;99.90
23156;DHT22;11746;50.876;4.246;2022-10-17T11:11:26;17.90;99.90
23156;DHT22;11746;50.876;4.246;2022-10-17T11:17:01;17.80;99.90
23156;DHT22;11746;50.876;4.246;2022-10-17T11:19:51;17.70;99.90
23156;DHT22;11746;50.876;4.246;2022-10-17T11:22:35;17.70;99.90
23156;DHT22;11746;50.876;4.246;2022-10-17T11:27:37;17.80;99.90
23156;DHT22;11746;50.876;4.246;2022-10-17T11:30:04;17.80;99.90
23156;DHT22;11746;50.876;4.246;2022-10-17T11:32:43;17.80;99.90
23156;DHT22;11746;50.876;4.246;2022-10-17T11:37:42;17.80;99.90
23156;DHT22;11746;50.876;4.246;2022-10-17T11:40:35;17.70;99.90
23156;DHT22;11746;50.876;4.246;2022-10-17T11:43:12;17.70;99.90
23156;DHT22;11746;50.876;4.246;2022-10-17T11:45:43;17.70;99.90
23156;DHT22;11746;50.876;4.246;2022-10-17T11:49:05;17.70;99.90
23156;DHT22;11746;50.876;4.246;2022-10-17T11:51:10;17.70;99.90
23156;DHT22;11746;50.876;4.246;2022-10-17T11:53:50;17.70;99.90
23156;DHT22;11746;50.876;4.246;2022-10-17T11:56:39;17.80;99.90
23156;DHT22;11746;50.876;4.246;2022-10-17T11:59:44;17.90;99.90
23156;DHT22;11746;50.876;4.246;2022-10-17T12:05:53;18.00;99.90
23156;DHT22;11746;50.876;4.246;2022-10-17T12:08:12;18.10;99.90
23156;DHT22;11746;50.876;4.246;2022-10-17T12:14:02;18.10;99.90
23156;DHT22;11746;50.876;4.246;2022-10-17T12:21:26;18.00;99.90
23156;DHT22;11746;50.876;4.246;2022-10-17T12:23:53;18.00;99.90
23156;DHT22;11746;50.876;4.246;2022-10-17T12:26:42;18.00;99.90
23156;DHT22;11746;50.876;4.246;2022-10-17T12:29:25;18.00;99.90
23156;DHT22;11746;50.876;4.246;2022-10-17T12:31:53;18.00;99.90
23156;DHT22;11746;50.876;4.246;2022-10-17T12:34:21;18.10;99.90
23156;DHT22;11746;50.876;4.246;2022-10-17T12:36:48;18.20;99.90
23156;DHT22;11746;50.876;4.246;2022-10-17T12:49:41;18.20;99.90
23156;DHT22;11746;50.876;4.246;2022-10-17T12:55:05;18.20;99.90
23156;DHT22;11746;50.876;4.246;2022-10-17T13:00:36;18.30;99.90
23156;DHT22;11746;50.876;4.246;2022-10-17T13:03:15;18.40;99.90
23156;DHT22;11746;50.876;4.246;2022-10-17T13:05:48;18.50;99.90
23156;DHT22;11746;50.876;4.246;2022-10-17T13:08:22;18.40;99.90
23156;DHT22;11746;50.876;4.246;2022-10-17T13:10:51;18.40;99.90
23156;DHT22;11746;50.876;4.246;2022-10-17T13:13:45;18.40;99.90
23156;DHT22;11746;50.876;4.246;2022-10-17T13:16:36;18.40;99.90
23156;DHT22;11746;50.876;4.246;2022-10-17T13:19:12;18.40;99.90
23156;DHT22;11746;50.876;4.246;2022-10-17T13:21:55;18.50;99.90
23156;DHT22;11746;50.876;4.246;2022-10-17T13:24:34;18.60;99.90
23156;DHT22;11746;50.876;4.246;2022-10-17T13:27:01;18.60;99.90
23156;DHT22;11746;50.876;4.246;2022-10-17T13:29:29;18.70;99.90
23156;DHT22;11746;50.876;4.246;2022-10-17T13:32:01;18.70;99.90
23156;DHT22;11746;50.876;4.246;2022-10-17T13:34:29;18.90;99.90
23156;DHT22;11746;50.876;4.246;2022-10-17T13:37:01;18.70;99.90
23156;DHT22;11746;50.876;4.246;2022-10-17T13:39:37;18.70;99.90
23156;DHT22;11746;50.876;4.246;2022-10-17T13:42:04;18.80;99.90
23156;DHT22;11746;50.876;4.246;2022-10-17T13:44:33;18.70;99.90
23156;DHT22;11746;50.876;4.246;2022-10-17T13:47:00;18.70;99.90
23156;DHT22;11746;50.876;4.246;2022-10-17T13:51:57;18.70;99.90
23156;DHT22;11746;50.876;4.246;2022-10-17T13:54:43;18.70;99.90
23156;DHT22;11746;50.876;4.246;2022-10-17T13:59:43;18.50;99.90
23156;DHT22;11746;50.876;4.246;2022-10-17T14:02:20;18.60;99.90
23156;DHT22;11746;50.876;4.246;2022-10-17T14:04:57;18.50;99.90
23156;DHT22;11746;50.876;4.246;2022-10-17T14:10:00;18.60;99.90
23156;DHT22;11746;50.876;4.246;2022-10-17T14:12:31;18.80;99.90
23156;DHT22;11746;50.876;4.246;2022-10-17T14:15:01;18.80;99.90
23156;DHT22;11746;50.876;4.246;2022-10-17T14:17:29;18.90;99.90
23156;DHT22;11746;50.876;4.246;2022-10-17T14:19:58;18.90;99.90
23156;DHT22;11746;50.876;4.246;2022-10-17T14:22:28;18.80;99.90
23156;DHT22;11746;50.876;4.246;2022-10-17T14:24:55;18.80;99.90
23156;DHT22;11746;50.876;4.246;2022-10-17T14:29:59;18.90;99.90
23156;DHT22;11746;50.876;4.246;2022-10-17T14:32:32;18.90;99.90
23156;DHT22;11746;50.876;4.246;2022-10-17T14:35:01;18.90;99.90
23156;DHT22;11746;50.876;4.246;2022-10-17T14:37:44;18.80;99.90
23156;DHT22;11746;50.876;4.246;2022-10-17T14:40:16;18.80;99.90
23156;DHT22;11746;50.876;4.246;2022-10-17T14:42:44;18.90;99.90
23156;DHT22;11746;50.876;4.246;2022-10-17T14:45:26;19.00;99.90
23156;DHT22;11746;50.876;4.246;2022-10-17T14:47:56;19.00;99.90
23156;DHT22;11746;50.876;4.246;2022-10-17T14:50:29;19.10;99.90
23156;DHT22;11746;50.876;4.246;2022-10-17T14:53:04;19.10;99.90
23156;DHT22;11746;50.876;4.246;2022-10-17T14:55:31;19.00;99.90
23156;DHT22;11746;50.876;4.246;2022-10-17T14:57:58;19.00;99.90
23156;DHT22;11746;50.876;4.246;2022-10-17T15:00:25;18.90;99.90
23156;DHT22;11746;50.876;4.246;2022-10-17T15:02:53;19.00;99.90
23156;DHT22;11746;50.876;4.246;2022-10-17T15:05:20;18.90;99.90
23156;DHT22;11746;50.876;4.246;2022-10-17T15:07:47;18.80;99.90
23156;DHT22;11746;50.876;4.246;2022-10-17T15:10:34;18.80;99.90
23156;DHT22;11746;50.876;4.246;2022-10-17T15:13:01;18.80;99.90
23156;DHT22;11746;50.876;4.246;2022-10-17T15:15:28;18.80;99.90
23156;DHT22;11746;50.876;4.246;2022-10-17T15:17:54;18.80;99.90
23156;DHT22;11746;50.876;4.246;2022-10-17T15:20:21;18.80;99.90
23156;DHT22;11746;50.876;4.246;2022-10-17T15:22:51;18.90;99.90
23156;DHT22;11746;50.876;4.246;2022-10-17T15:25:18;18.90;99.90
23156;DHT22;11746;50.876;4.246;2022-10-17T15:27:44;19.00;99.90
23156;DHT22;11746;50.876;4.246;2022-10-17T15:32:48;18.90;99.90
23156;DHT22;11746;50.876;4.246;2022-10-17T15:35:18;19.00;99.90
23156;DHT22;11746;50.876;4.246;2022-10-17T15:37:44;19.00;99.90
23156;DHT22;11746;50.876;4.246;2022-10-17T15:40:25;18.90;99.90
23156;DHT22;11746;50.876;4.246;2022-10-17T15:42:53;18.90;99.90
23156;DHT22;11746;50.876;4.246;2022-10-17T15:45:21;18.80;99.90
23156;DHT22;11746;50.876;4.246;2022-10-17T15:47:54;18.70;99.90
23156;DHT22;11746;50.876;4.246;2022-10-17T15:50:20;18.60;99.90
23156;DHT22;11746;50.876;4.246;2022-10-17T15:52:47;18.50;99.90
23156;DHT22;11746;50.876;4.246;2022-10-17T15:55:16;18.60;99.90
23156;DHT22;11746;50.876;4.246;2022-10-17T15:57:44;18.70;99.90
23156;DHT22;11746;50.876;4.246;2022-10-17T16:00:20;18.80;99.90
23156;DHT22;11746;50.876;4.246;2022-10-17T16:02:47;18.80;99.90
23156;DHT22;11746;50.876;4.246;2022-10-17T16:05:21;18.80;99.90
23156;DHT22;11746;50.876;4.246;2022-10-17T16:07:49;18.80;99.90
23156;DHT22;11746;50.876;4.246;2022-10-17T16:10:16;18.80;99.90
23156;DHT22;11746;50.876;4.246;2022-10-17T16:12:42;18.70;99.90
23156;DHT22;11746;50.876;4.246;2022-10-17T16:15:16;18.70;99.90
23156;DHT22;11746;50.876;4.246;2022-10-17T16:17:43;18.70;99.90
23156;DHT22;11746;50.876;4.246;2022-10-17T16:20:13;18.80;99.90
23156;DHT22;11746;50.876;4.246;2022-10-17T16:22:41;18.60;99.90
23156;DHT22;11746;50.876;4.246;2022-10-17T16:27:45;18.50;99.90
23156;DHT22;11746;50.876;4.246;2022-10-17T16:30:12;18.50;99.90
23156;DHT22;11746;50.876;4.246;2022-10-17T16:32:38;18.50;99.90
23156;DHT22;11746;50.876;4.246;2022-10-17T16:35:06;18.50;99.90
23156;DHT22;11746;50.876;4.246;2022-10-17T16:37:32;18.50;99.90
23156;DHT22;11746;50.876;4.246;2022-10-17T16:40:00;18.60;99.90
23156;DHT22;11746;50.876;4.246;2022-10-17T16:42:27;18.60;99.90
23156;DHT22;11746;50.876;4.246;2022-10-17T16:44:53;18.50;99.90
23156;DHT22;11746;50.876;4.246;2022-10-17T16:47:18;18.50;99.90
23156;DHT22;11746;50.876;4.246;2022-10-17T16:49:45;18.50;99.90
23156;DHT22;11746;50.876;4.246;2022-10-17T16:52:11;18.50;99.90
23156;DHT22;11746;50.876;4.246;2022-10-17T16:54:37;18.40;99.90
23156;DHT22;11746;50.876;4.246;2022-10-17T16:57:06;18.40;99.90
23156;DHT22;11746;50.876;4.246;2022-10-17T16:59:33;18.40;99.90
23156;DHT22;11746;50.876;4.246;2022-10-17T17:02:00;18.50;99.90
23156;DHT22;11746;50.876;4.246;2022-10-17T17:04:25;18.50;99.90
23156;DHT22;11746;50.876;4.246;2022-10-17T17:06:52;18.50;99.90
23156;DHT22;11746;50.876;4.246;2022-10-17T17:09:19;18.50;99.90
23156;DHT22;11746;50.876;4.246;2022-10-17T17:11:45;18.50;99.90
23156;DHT22;11746;50.876;4.246;2022-10-17T17:14:12;18.40;99.90
23156;DHT22;11746;50.876;4.246;2022-10-17T17:16:39;18.40;99.90
23156;DHT22;11746;50.876;4.246;2022-10-17T17:19:08;18.30;99.90
23156;DHT22;11746;50.876;4.246;2022-10-17T17:21:35;18.30;99.90
23156;DHT22;11746;50.876;4.246;2022-10-17T17:24:02;18.30;99.90
23156;DHT22;11746;50.876;4.246;2022-10-17T17:26:32;18.30;99.90
23156;DHT22;11746;50.876;4.246;2022-10-17T17:29:00;18.40;99.90
23156;DHT22;11746;50.876;4.246;2022-10-17T17:31:28;18.40;99.90
23156;DHT22;11746;50.876;4.246;2022-10-17T17:33:56;18.40;99.90
23156;DHT22;11746;50.876;4.246;2022-10-17T17:36:24;18.40;99.90
23156;DHT22;11746;50.876;4.246;2022-10-17T17:38:53;18.30;99.90
23156;DHT22;11746;50.876;4.246;2022-10-17T17:41:20;18.20;99.90
23156;DHT22;11746;50.876;4.246;2022-10-17T17:43:47;18.20;99.90
23156;DHT22;11746;50.876;4.246;2022-10-17T17:46:15;18.20;99.90
23156;DHT22;11746;50.876;4.246;2022-10-17T17:48:44;18.20;99.90
23156;DHT22;11746;50.876;4.246;2022-10-17T17:51:12;18.20;99.90
23156;DHT22;11746;50.876;4.246;2022-10-17T17:53:39;18.10;99.90